Time;durP1;ratioP1;P1;durP2;ratioP2;P2;SDS_P1;SDS_P2;PMS_P1;PMS_P2;Temp;Humidity;BMP_temperature;BMP_pressure;BME280_temperature;BME280_humidity;BME280_pressure;Samples;Min_cycle;Max_cycle;Signal;HPM_P1;HPM_P2
2021/06/21 00:00:11;;;;;;;0.10;0.10;;;;;;;20.81;60.52;100832.34;5034273;28;20034;-87
2021/06/21 00:02:37;;;;;;;0.68;0.30;;;;;;;20.89;60.46;100844.47;5033185;28;20096;-87
2021/06/21 00:05:05;;;;;;;0.00;0.00;;;;;;;20.68;60.86;100845.66;5033006;28;20025;-87
2021/06/21 00:07:32;;;;;;;0.30;0.30;;;;;;;20.62;61.12;100853.25;5046473;28;20116;-87
2021/06/21 00:09:58;;;;;;;0.10;0.10;;;;;;;20.63;60.65;100861.25;5054206;28;20485;-86
2021/06/21 00:12:25;;;;;;;0.00;0.00;;;;;;;20.55;60.97;100866.25;5053659;28;20067;-85
2021/06/21 00:14:55;;;;;;;0.10;0.10;;;;;;;20.68;60.89;100864.50;5050464;28;20101;-86
2021/06/21 00:17:21;;;;;;;1.42;1.33;;;;;;;20.44;61.11;100876.81;5048336;28;20037;-85
2021/06/21 00:19:47;;;;;;;0.10;0.10;;;;;;;20.61;60.68;100883.84;5053356;28;20104;-85
2021/06/21 00:22:15;;;;;;;0.03;0.03;;;;;;;20.29;61.35;100884.84;5053647;28;20032;-84
2021/06/21 00:24:43;;;;;;;0.20;0.20;;;;;;;20.33;61.73;100881.00;5054411;28;20345;-86
2021/06/21 00:27:09;;;;;;;0.00;0.00;;;;;;;20.42;61.60;100876.88;5052248;28;20029;-85
2021/06/21 00:29:36;;;;;;;1.77;0.68;;;;;;;20.51;61.06;100884.41;5037224;28;20033;-85
2021/06/21 00:32:03;;;;;;;0.00;0.00;;;;;;;20.41;61.16;100882.38;5037819;28;20025;-85
2021/06/21 00:34:29;;;;;;;0.00;0.00;;;;;;;20.45;61.12;100895.56;5037334;28;20033;-86
2021/06/21 00:36:56;;;;;;;0.55;0.47;;;;;;;20.48;61.31;100886.41;5047380;28;20030;-85
2021/06/21 00:39:22;;;;;;;1.45;0.63;;;;;;;20.36;61.46;100888.03;5037456;28;20033;-87
2021/06/21 00:41:49;;;;;;;0.00;0.00;;;;;;;20.43;61.39;100875.06;5037148;28;20602;-87
2021/06/21 00:44:16;;;;;;;0.08;0.08;;;;;;;20.45;61.14;100883.91;5037340;28;20026;-87
2021/06/21 00:46:42;;;;;;;0.00;0.00;;;;;;;20.54;61.08;100877.97;5038250;28;20021;-88
2021/06/21 00:49:08;;;;;;;0.00;0.00;;;;;;;20.60;61.01;100882.97;5037818;28;20025;-86
2021/06/21 00:51:35;;;;;;;0.22;0.22;;;;;;;20.63;60.67;100876.53;5036902;28;20183;-86
2021/06/21 00:54:03;;;;;;;0.10;0.10;;;;;;;20.46;60.82;100869.50;5037041;28;20029;-86
2021/06/21 00:56:29;;;;;;;0.10;0.10;;;;;;;20.48;60.69;100870.28;5039512;28;20037;-85
2021/06/21 00:59:01;;;;;;;1.38;0.40;;;;;;;20.45;60.71;100875.81;5037199;28;20029;-86
2021/06/21 01:01:28;;;;;;;0.40;0.40;;;;;;;20.20;60.89;100880.03;5037483;28;20523;-86
2021/06/21 01:03:55;;;;;;;0.00;0.00;;;;;;;20.30;60.40;100885.69;5037403;28;20080;-86
2021/06/21 01:06:21;;;;;;;0.10;0.10;;;;;;;20.22;60.43;100886.16;5036354;28;20030;-85
2021/06/21 01:08:48;;;;;;;2.45;1.88;;;;;;;20.21;60.56;100889.81;5036011;28;20042;-86
2021/06/21 01:11:16;;;;;;;0.15;0.15;;;;;;;20.30;59.99;100886.59;5037240;28;20029;-86
2021/06/21 01:16:32;;;;;;;0.00;0.00;;;;;;;20.10;60.37;100886.91;5071509;27;20148;-86
2021/06/21 01:25:09;;;;;;;0.50;0.50;;;;;;;19.75;60.49;100889.81;5108818;27;20592;-87
2021/06/21 01:27:48;;;;;;;0.10;0.10;;;;;;;19.79;60.25;100889.53;5091759;28;20034;-87
2021/06/21 01:30:18;;;;;;;4.65;0.90;;;;;;;19.50;60.81;100878.66;5091908;28;20467;-87
2021/06/21 01:33:05;;;;;;;0.10;0.10;;;;;;;19.77;60.47;100882.53;5091654;28;20386;-87
2021/06/21 01:35:37;;;;;;;0.00;0.00;;;;;;;19.66;60.62;100885.81;5092374;28;20035;-87
2021/06/21 01:38:16;;;;;;;0.25;0.25;;;;;;;19.82;60.40;100877.75;5091675;28;20039;-87
2021/06/21 01:40:46;;;;;;;0.10;0.10;;;;;;;19.84;60.36;100870.50;5091722;28;20115;-86
2021/06/21 01:43:18;;;;;;;0.68;0.68;;;;;;;19.81;60.10;100884.06;5091813;28;20039;-87
2021/06/21 01:45:45;;;;;;;0.15;0.15;;;;;;;19.79;60.25;100873.41;5092076;28;20378;-87
2021/06/21 01:48:13;;;;;;;0.10;0.10;;;;;;;19.66;60.40;100870.56;5090712;28;20022;-86
2021/06/21 01:50:41;;;;;;;2.83;0.90;;;;;;;19.56;60.80;100874.75;5091518;28;20020;-87
2021/06/21 01:53:12;;;;;;;0.00;0.00;;;;;;;19.65;60.84;100876.91;5091548;28;20122;-86
2021/06/21 01:55:50;;;;;;;0.30;0.30;;;;;;;19.48;61.14;100877.00;5091506;28;20024;-87
2021/06/21 01:58:17;;;;;;;0.80;0.80;;;;;;;19.59;60.94;100876.38;5091142;28;20028;-87
2021/06/21 02:00:47;;;;;;;0.10;0.10;;;;;;;19.49;61.62;100878.72;5091482;28;20028;-86
2021/06/21 02:03:14;;;;;;;0.00;0.00;;;;;;;19.52;61.20;100865.97;5090527;28;20024;-86
2021/06/21 02:05:42;;;;;;;0.10;0.10;;;;;;;19.29;62.18;100867.31;5088272;28;20036;-87
2021/06/21 02:08:12;;;;;;;0.00;0.00;;;;;;;19.32;61.98;100863.56;5078251;28;20371;-86
2021/06/21 02:10:39;;;;;;;0.00;0.00;;;;;;;19.22;62.68;100866.75;5079933;28;20111;-87
2021/06/21 02:13:07;;;;;;;0.00;0.00;;;;;;;19.13;62.79;100866.41;5080513;28;20441;-87
2021/06/21 02:15:34;;;;;;;0.10;0.10;;;;;;;19.15;63.00;100865.41;5080587;28;20036;-86
2021/06/21 02:18:01;;;;;;;0.10;0.10;;;;;;;19.02;64.40;100862.50;5079828;28;20116;-87
2021/06/21 02:20:28;;;;;;;0.50;0.50;;;;;;;19.07;63.18;100865.81;5088675;28;20021;-86
2021/06/21 02:22:55;;;;;;;0.00;0.00;;;;;;;19.00;64.45;100861.72;5090953;28;20044;-87
2021/06/21 02:25:22;;;;;;;0.10;0.10;;;;;;;19.02;64.17;100854.47;5091209;28;20033;-88
2021/06/21 02:27:49;;;;;;;0.10;0.10;;;;;;;18.90;64.80;100863.16;5090747;28;20123;-88
2021/06/21 02:30:17;;;;;;;0.47;0.47;;;;;;;18.71;65.73;100861.47;5090789;28;20115;-85
2021/06/21 02:32:45;;;;;;;0.00;0.00;;;;;;;18.57;66.52;100869.41;5089898;28;20483;-86
2021/06/21 02:35:13;;;;;;;0.00;0.00;;;;;;;18.84;65.14;100866.16;5083102;28;20381;-86
2021/06/21 02:37:41;;;;;;;0.50;0.50;;;;;;;18.70;65.85;100861.56;5076890;28;20029;-85
2021/06/21 02:40:10;;;;;;;0.10;0.10;;;;;;;18.61;66.05;100854.88;5075564;28;20108;-87
2021/06/21 02:42:38;;;;;;;0.05;0.05;;;;;;;18.60;66.23;100866.53;5076340;28;20032;-85
2021/06/21 02:45:06;;;;;;;0.00;0.00;;;;;;;18.57;66.10;100864.03;5075662;28;20021;-85
2021/06/21 02:47:33;;;;;;;0.70;0.70;;;;;;;18.59;66.80;100870.16;5077544;28;20028;-85
2021/06/21 02:50:00;;;;;;;0.30;0.30;;;;;;;18.24;66.92;100875.56;5076860;28;20029;-85
2021/06/21 02:55:21;;;;;;;0.00;0.00;;;;;;;18.31;66.60;100874.31;5127588;27;20215;-85
2021/06/21 02:58:07;;;;;;;;;;;;;;;18.49;66.15;100876.97;5091887;28;20036;-84
2021/06/21 03:00:35;;;;;;;0.05;0.05;;;;;;;18.30;67.42;100887.81;5093202;28;19915;-85
2021/06/21 03:03:02;;;;;;;0.10;0.10;;;;;;;18.42;66.40;100877.31;5100222;28;20047;-84
2021/06/21 03:05:30;;;;;;;0.00;0.00;;;;;;;18.00;67.35;100873.22;5092515;28;20048;-85
2021/06/21 03:07:59;;;;;;;0.10;0.10;;;;;;;18.10;67.57;100876.28;5090960;28;20036;-85
2021/06/21 03:10:26;;;;;;;0.08;0.08;;;;;;;18.24;66.80;100878.25;5091323;28;20042;-85
2021/06/21 03:12:54;;;;;;;0.00;0.00;;;;;;;18.21;68.00;100865.03;5095761;22;20036;-82
2021/06/21 03:15:25;;;;;;;0.05;0.05;;;;;;;18.13;67.84;100864.53;5070204;28;20028;-82
2021/06/21 03:17:53;;;;;;;0.20;0.20;;;;;;;18.15;68.11;100857.28;5070222;28;20484;-82
2021/06/21 03:20:21;;;;;;;0.00;0.00;;;;;;;18.26;67.46;100861.13;5070402;28;20035;-80
2021/06/21 03:22:54;;;;;;;0.00;0.00;;;;;;;18.31;67.60;100854.69;5070121;28;20082;-82
2021/06/21 03:25:36;;;;;;;0.10;0.10;;;;;;;18.35;67.54;100848.19;5070342;28;20029;-82
2021/06/21 03:28:08;;;;;;;;;;;;;;;18.40;68.07;100849.69;5070821;28;20032;-82
2021/06/21 03:30:35;;;;;;;0.00;0.00;;;;;;;18.30;67.56;100845.75;5070661;28;20236;-82
2021/06/21 03:33:01;;;;;;;0.00;0.00;;;;;;;18.30;67.99;100844.91;5069772;28;20485;-81
2021/06/21 03:35:28;;;;;;;0.00;0.00;;;;;;;18.10;68.87;100844.97;5070222;28;20151;-81
2021/06/21 03:37:54;;;;;;;0.20;0.20;;;;;;;18.23;68.79;100847.03;5073799;28;20077;-82
2021/06/21 03:40:21;;;;;;;0.10;0.10;;;;;;;18.18;68.99;100852.63;5078687;28;20029;-81
2021/06/21 03:42:47;;;;;;;0.80;0.50;;;;;;;18.19;69.02;100849.00;5069853;28;20114;-82
2021/06/21 03:45:15;;;;;;;0.00;0.00;;;;;;;18.26;68.72;100838.81;5069959;28;20025;-82
2021/06/21 03:47:41;;;;;;;0.10;0.10;;;;;;;18.29;67.79;100844.00;5069729;28;20025;-81
2021/06/21 03:50:09;;;;;;;0.00;0.00;;;;;;;18.29;68.30;100848.53;5069868;28;20029;-79
2021/06/21 03:52:36;;;;;;;0.10;0.10;;;;;;;18.18;69.00;100841.03;5069587;28;20545;-80
2021/06/21 03:55:06;;;;;;;0.00;0.00;;;;;;;18.20;68.34;100839.16;5069521;28;20025;-80
2021/06/21 03:57:39;;;;;;;0.00;0.00;;;;;;;18.30;68.52;100832.34;5069595;28;20036;-79
2021/06/21 04:00:09;;;;;;;0.05;0.05;;;;;;;18.29;68.51;100841.34;5069561;28;20021;-79
2021/06/21 04:02:35;;;;;;;0.00;0.00;;;;;;;18.21;68.77;100836.38;5069307;28;20040;-80
2021/06/21 04:05:03;;;;;;;0.00;0.00;;;;;;;18.18;69.30;100835.66;5064570;28;20074;-80
2021/06/21 04:07:29;;;;;;;0.10;0.10;;;;;;;18.34;68.80;100841.09;5056330;28;20032;-79
2021/06/21 04:09:55;;;;;;;0.10;0.10;;;;;;;18.10;69.26;100836.94;5056352;28;20037;-79
2021/06/21 04:12:23;;;;;;;0.00;0.00;;;;;;;18.17;68.12;100831.25;5055931;28;20087;-80
2021/06/21 04:14:51;;;;;;;0.17;0.17;;;;;;;17.91;68.49;100838.81;5055812;28;20040;-79
2021/06/21 04:17:18;;;;;;;0.95;0.52;;;;;;;18.02;68.08;100827.53;5056187;28;20503;-80
2021/06/21 04:19:44;;;;;;;0.00;0.00;;;;;;;17.87;69.03;100837.22;5056061;28;20083;-79
2021/06/21 04:22:10;;;;;;;0.85;0.63;;;;;;;17.94;69.37;100830.63;5055893;28;20076;-81
2021/06/21 04:24:36;;;;;;;0.08;0.08;;;;;;;17.82;68.87;100828.53;5056042;28;20079;-82
2021/06/21 04:27:03;;;;;;;0.10;0.10;;;;;;;17.88;68.88;100833.59;5055885;28;20036;-81
2021/06/21 04:29:29;;;;;;;0.00;0.00;;;;;;;17.74;68.98;100820.88;5055541;28;20025;-82
2021/06/21 04:31:55;;;;;;;0.00;0.00;;;;;;;17.77;68.99;100821.59;5055871;28;20120;-82
2021/06/21 04:34:22;;;;;;;0.05;0.05;;;;;;;17.82;68.89;100817.81;5055621;28;20036;-82
2021/06/21 04:36:48;;;;;;;0.05;0.05;;;;;;;17.68;68.98;100815.84;5056436;28;20033;-82
2021/06/21 04:39:15;;;;;;;0.00;0.00;;;;;;;17.83;68.49;100814.19;5054467;28;20025;-83
2021/06/21 04:41:41;;;;;;;0.00;0.00;;;;;;;17.67;68.88;100815.00;5054782;28;20543;-81
2021/06/21 04:44:08;;;;;;;0.05;0.05;;;;;;;17.75;68.55;100812.75;5086369;22;20070;-86
2021/06/21 04:46:35;;;;;;;0.00;0.00;;;;;;;17.69;69.10;100818.44;5075866;28;20024;-86
2021/06/21 04:49:02;;;;;;;0.00;0.00;;;;;;;17.66;69.03;100807.88;5075819;28;20021;-86
2021/06/21 04:51:31;;;;;;;0.20;0.20;;;;;;;17.70;69.59;100819.31;5075286;28;20437;-86
2021/06/21 04:53:58;;;;;;;0.00;0.00;;;;;;;17.55;69.57;100813.78;5092647;28;20071;-86
2021/06/21 04:56:24;;;;;;;0.08;0.08;;;;;;;17.66;68.64;100815.94;5097103;28;20020;-86
2021/06/21 04:58:50;;;;;;;0.00;0.00;;;;;;;17.68;68.78;100816.69;5095863;28;20112;-86
2021/06/21 05:01:17;;;;;;;0.20;0.20;;;;;;;17.55;69.63;100829.84;5095692;28;20071;-86
2021/06/21 05:03:43;;;;;;;0.10;0.10;;;;;;;17.53;69.48;100815.66;5095677;28;20534;-87
2021/06/21 05:06:09;;;;;;;0.47;0.47;;;;;;;17.52;69.74;100821.97;5095663;28;20032;-86
2021/06/21 05:08:35;;;;;;;0.15;0.15;;;;;;;17.60;69.67;100816.22;5095706;28;20062;-86
2021/06/21 05:11:01;;;;;;;0.10;0.10;;;;;;;17.68;69.67;100827.41;5095415;28;20467;-86
2021/06/21 05:13:27;;;;;;;0.00;0.00;;;;;;;17.63;69.22;100824.09;5093923;28;20177;-86
2021/06/21 05:15:54;;;;;;;0.10;0.10;;;;;;;17.61;69.58;100823.31;5094860;28;20020;-86
2021/06/21 05:18:23;;;;;;;1.63;0.45;;;;;;;17.62;69.65;100827.75;5093380;28;20040;-87
2021/06/21 05:20:50;;;;;;;0.20;0.20;;;;;;;17.52;70.36;100821.97;5093177;28;20025;-85
2021/06/21 05:23:16;;;;;;;0.08;0.08;;;;;;;17.50;70.42;100831.03;5088424;28;20040;-86
2021/06/21 05:25:42;;;;;;;0.10;0.10;;;;;;;17.56;70.13;100830.72;5078317;28;20029;-85
2021/06/21 05:28:08;;;;;;;0.00;0.00;;;;;;;17.64;69.49;100825.84;5094183;28;20506;-84
2021/06/21 05:30:35;;;;;;;0.10;0.10;;;;;;;17.68;69.38;100815.84;5091209;28;20551;-83
2021/06/21 05:33:01;;;;;;;0.03;0.03;;;;;;;17.62;69.43;100825.06;5092848;28;20036;-85
2021/06/21 05:35:27;;;;;;;0.43;0.43;;;;;;;17.69;69.25;100823.78;5094422;28;20028;-84
2021/06/21 05:37:53;;;;;;;0.00;0.00;;;;;;;17.54;69.76;100829.94;5074645;28;20468;-84
2021/06/21 05:40:20;;;;;;;0.10;0.10;;;;;;;17.56;69.31;100834.25;5074365;28;20028;-85
2021/06/21 05:42:46;;;;;;;0.10;0.10;;;;;;;17.58;69.04;100835.06;5074278;28;20033;-85
2021/06/21 05:45:13;;;;;;;0.30;0.30;;;;;;;17.62;69.70;100847.34;5074444;28;20025;-85
2021/06/21 05:47:39;;;;;;;0.10;0.10;;;;;;;17.74;69.06;100848.53;5075181;28;20031;-87
2021/06/21 05:50:06;;;;;;;0.68;0.68;;;;;;;17.71;69.96;100843.34;5075117;28;20032;-85
2021/06/21 05:52:32;;;;;;;0.00;0.00;;;;;;;17.79;69.73;100845.63;5081614;28;20049;-85
2021/06/21 05:54:59;;;;;;;0.10;0.10;;;;;;;17.89;69.55;100846.03;5094383;28;20032;-87
2021/06/21 05:57:27;;;;;;;0.10;0.10;;;;;;;17.89;70.41;100859.44;5077452;28;20036;-86
2021/06/21 05:59:53;;;;;;;0.03;0.03;;;;;;;17.97;69.72;100859.09;5089638;28;20042;-90
2021/06/21 06:02:19;;;;;;;0.00;0.00;;;;;;;17.96;69.65;100863.59;5094225;28;20028;-88
2021/06/21 06:04:46;;;;;;;0.10;0.10;;;;;;;17.99;69.30;100866.09;5084991;28;20216;-90
2021/06/21 06:07:12;;;;;;;0.10;0.10;;;;;;;18.04;69.35;100865.88;5085369;28;20021;-90
2021/06/21 06:09:39;;;;;;;0.10;0.10;;;;;;;18.08;69.14;100867.44;5083809;28;20024;-89
2021/06/21 06:12:06;;;;;;;0.00;0.00;;;;;;;18.18;68.91;100873.22;5083424;28;20140;-88
2021/06/21 06:14:32;;;;;;;0.10;0.10;;;;;;;18.23;68.58;100888.13;5085047;28;20032;-90
2021/06/21 06:16:59;;;;;;;0.10;0.10;;;;;;;18.20;68.77;100885.59;5082077;28;20082;-89
2021/06/21 06:19:26;;;;;;;2.40;0.52;;;;;;;18.24;68.72;100884.50;5087981;28;20386;-89
2021/06/21 06:21:52;;;;;;;0.50;0.50;;;;;;;18.23;70.07;100892.59;5093056;28;20020;-90
2021/06/21 06:24:18;;;;;;;0.03;0.03;;;;;;;18.14;68.99;100895.78;5092703;28;20036;-90
2021/06/21 06:26:45;;;;;;;0.65;0.50;;;;;;;18.26;68.62;100893.31;5079007;28;20478;-92
2021/06/21 06:29:13;;;;;;;0.10;0.10;;;;;;;18.04;69.08;100901.59;5074060;28;20036;-94
2021/06/21 06:31:41;;;;;;;0.20;0.20;;;;;;;18.11;69.31;100902.16;5074191;28;20154;-90
2021/06/21 06:34:08;;;;;;;0.10;0.10;;;;;;;18.23;68.75;100903.34;5072640;28;20123;-89
2021/06/21 06:36:34;;;;;;;0.10;0.10;;;;;;;18.25;68.52;100901.44;5073870;28;20490;-91
2021/06/21 06:39:00;;;;;;;0.00;0.00;;;;;;;18.14;69.62;100901.13;5081653;28;20119;-90
2021/06/21 06:41:26;;;;;;;0.30;0.30;;;;;;;18.14;69.51;100904.66;5090907;28;20403;-89
2021/06/21 06:43:54;;;;;;;0.00;0.00;;;;;;;18.22;69.09;100907.00;5094101;28;20036;-89
2021/06/21 06:46:20;;;;;;;0.10;0.10;;;;;;;18.27;68.60;100904.94;5093763;28;20032;-88
2021/06/21 06:48:46;;;;;;;1.58;1.33;;;;;;;18.16;69.45;100909.97;5094316;28;20092;-89
2021/06/21 06:51:13;;;;;;;0.10;0.10;;;;;;;17.94;69.86;100919.97;5093455;28;20395;-87
2021/06/21 06:53:42;;;;;;;0.00;0.00;;;;;;;18.09;68.89;100923.69;5092638;28;20123;-88
2021/06/21 06:58:56;;;;;;;0.10;0.10;;;;;;;18.04;69.08;100928.41;5093548;28;20472;-87
2021/06/21 07:01:23;;;;;;;0.10;0.10;;;;;;;18.10;68.70;100936.13;5093579;28;20554;-87
2021/06/21 07:03:50;;;;;;;0.10;0.10;;;;;;;17.94;68.68;100933.38;5093839;28;20024;-87
2021/06/21 07:06:18;;;;;;;0.00;0.00;;;;;;;18.05;68.26;100931.97;5094226;28;20121;-87
2021/06/21 07:08:45;;;;;;;0.20;0.20;;;;;;;18.06;68.51;100939.91;5093685;28;20533;-87
2021/06/21 07:11:13;;;;;;;0.10;0.10;;;;;;;17.93;68.99;100946.78;5093825;28;20024;-87
2021/06/21 07:13:39;;;;;;;0.08;0.08;;;;;;;17.90;68.85;100949.66;5093286;28;20032;-86
2021/06/21 07:16:06;;;;;;;0.10;0.10;;;;;;;17.92;68.84;100955.81;5091666;28;20119;-85
2021/06/21 07:18:32;;;;;;;0.20;0.20;;;;;;;17.76;68.84;100953.84;5093078;28;20028;-86
2021/06/21 07:20:58;;;;;;;0.00;0.00;;;;;;;17.88;68.47;100959.56;5092407;28;20025;-86
2021/06/21 07:23:24;;;;;;;0.10;0.10;;;;;;;17.84;68.69;100957.97;5093405;28;20111;-86
2021/06/21 07:25:51;;;;;;;1.27;1.17;;;;;;;17.85;69.16;100962.41;5082452;28;20032;-86
2021/06/21 07:28:17;;;;;;;0.00;0.00;;;;;;;17.97;68.72;100971.69;5081631;28;20103;-84
2021/06/21 07:30:44;;;;;;;0.10;0.10;;;;;;;17.81;69.64;100971.50;5081821;28;20494;-85
2021/06/21 07:33:11;;;;;;;0.05;0.05;;;;;;;18.02;68.76;100967.84;5084878;28;20387;-86
2021/06/21 07:35:40;;;;;;;0.30;0.30;;;;;;;17.94;68.37;100967.34;5083414;28;20021;-86
2021/06/21 07:38:08;;;;;;;0.00;0.00;;;;;;;17.90;68.13;100971.09;5090682;28;20035;-87
2021/06/21 07:40:36;;;;;;;0.10;0.10;;;;;;;17.95;68.76;100975.28;5093673;28;20020;-87
2021/06/21 07:43:02;;;;;;;0.00;0.00;;;;;;;18.04;68.43;100979.34;5096417;28;20036;-86
2021/06/21 07:45:29;;;;;;;0.32;0.32;;;;;;;18.12;68.17;100981.66;5096024;28;20128;-87
2021/06/21 07:47:58;;;;;;;0.10;0.10;;;;;;;18.06;67.97;100981.97;5096651;28;20111;-86
2021/06/21 07:50:27;;;;;;;0.30;0.30;;;;;;;18.09;67.94;100981.81;5094105;28;20032;-86
2021/06/21 07:52:54;;;;;;;0.40;0.40;;;;;;;17.97;68.78;100994.00;5093167;28;20060;-87
2021/06/21 07:55:28;;;;;;;0.10;0.10;;;;;;;18.00;68.82;100988.47;5096169;28;20040;-88
2021/06/21 07:57:55;;;;;;;0.10;0.10;;;;;;;18.04;68.63;100998.09;5100118;28;20075;-85
2021/06/21 08:00:24;;;;;;;0.00;0.00;;;;;;;17.92;68.40;100996.00;5093518;28;20038;-86
2021/06/21 08:02:51;;;;;;;0.10;0.10;;;;;;;17.90;68.17;101005.94;5093309;28;20043;-87
2021/06/21 08:05:18;;;;;;;0.00;0.00;;;;;;;17.94;67.82;100999.50;5093359;28;20032;-86
2021/06/21 08:07:45;;;;;;;0.00;0.00;;;;;;;18.00;68.53;101004.56;5090848;28;20032;-88
2021/06/21 08:10:12;;;;;;;0.10;0.10;;;;;;;18.10;68.23;101008.53;5088475;28;20479;-87
2021/06/21 08:12:39;;;;;;;0.10;0.10;;;;;;;18.21;68.84;101012.50;5089159;28;20115;-85
2021/06/21 08:15:06;;;;;;;0.00;0.00;;;;;;;18.20;68.46;101016.13;5080718;28;20039;-86
2021/06/21 08:17:33;;;;;;;0.00;0.00;;;;;;;18.22;68.04;101014.25;5079824;28;20036;-86
2021/06/21 08:19:59;;;;;;;0.10;0.10;;;;;;;18.27;68.31;101022.94;5091648;28;20193;-87
2021/06/21 08:22:25;;;;;;;0.10;0.10;;;;;;;18.17;68.28;101027.00;5092817;28;20628;-86
2021/06/21 08:24:52;;;;;;;0.10;0.10;;;;;;;18.22;68.01;101025.00;5085557;28;20111;-86
2021/06/21 08:27:19;;;;;;;0.00;0.00;;;;;;;18.26;68.11;101026.56;5083624;28;20024;-85
2021/06/21 08:29:46;;;;;;;0.10;0.10;;;;;;;18.16;68.15;101027.97;5084773;28;20020;-86
2021/06/21 08:32:12;;;;;;;0.10;0.10;;;;;;;18.19;68.22;101019.75;5079723;28;20493;-84
2021/06/21 08:34:39;;;;;;;0.10;0.10;;;;;;;18.15;68.23;101029.75;5074630;28;20040;-85
2021/06/21 08:37:05;;;;;;;0.17;0.17;;;;;;;18.21;68.66;101034.81;5074683;28;20032;-85
2021/06/21 08:39:32;;;;;;;0.40;0.40;;;;;;;18.25;68.83;101033.72;5074810;28;20043;-85
2021/06/21 08:41:59;;;;;;;0.08;0.08;;;;;;;18.18;69.07;101039.47;5091485;28;20039;-82
2021/06/21 08:44:27;;;;;;;0.00;0.00;;;;;;;18.16;69.09;101036.88;5094555;28;20040;-85
2021/06/21 08:46:53;;;;;;;0.20;0.20;;;;;;;18.18;69.02;101034.09;5094667;28;20032;-86
2021/06/21 08:49:20;;;;;;;0.00;0.00;;;;;;;18.11;68.70;101039.75;5094465;28;20024;-85
2021/06/21 08:51:49;;;;;;;0.10;0.10;;;;;;;18.14;68.61;101048.63;5094206;28;20059;-85
2021/06/21 08:54:16;;;;;;;0.10;0.10;;;;;;;18.05;69.21;101048.09;5094475;28;20034;-84
2021/06/21 08:56:42;;;;;;;0.10;0.10;;;;;;;17.91;69.46;101048.75;5094696;28;20688;-84
2021/06/21 08:59:08;;;;;;;0.00;0.00;;;;;;;18.09;68.48;101047.03;5088158;28;20024;-85
2021/06/21 09:01:39;;;;;;;0.45;0.45;;;;;;;18.09;68.54;101052.41;5086842;28;20040;-85
2021/06/21 09:04:09;;;;;;;0.00;0.00;;;;;;;18.02;69.28;101056.31;5086326;28;20081;-82
2021/06/21 09:06:39;;;;;;;0.00;0.00;;;;;;;17.62;69.28;101058.16;5082836;28;20359;-82
2021/06/21 09:09:06;;;;;;;0.13;0.13;;;;;;;17.82;69.06;101048.31;5073739;28;20082;-83
2021/06/21 09:14:33;;;;;;;0.10;0.10;;;;;;;17.78;69.21;101055.63;5068034;27;327485;-83
2021/06/21 09:17:02;;;;;;;0.22;0.22;;;;;;;17.94;69.55;101062.03;5084605;28;20056;-83
2021/06/21 09:19:29;;;;;;;0.00;0.00;;;;;;;17.96;69.28;101064.66;5089723;28;20422;-83
2021/06/21 09:21:56;;;;;;;0.00;0.00;;;;;;;18.00;68.93;101063.53;5089346;28;20720;-84
2021/06/21 09:24:25;;;;;;;0.15;0.15;;;;;;;18.00;69.18;101068.06;5074943;28;20025;-85
2021/06/21 09:26:53;;;;;;;0.10;0.10;;;;;;;18.10;69.30;101069.34;5081243;28;20052;-85
2021/06/21 09:29:37;;;;;;;0.10;0.10;;;;;;;18.12;69.33;101072.84;5078092;28;20086;-84
2021/06/21 09:32:04;;;;;;;0.03;0.03;;;;;;;17.94;69.40;101074.56;5075709;28;20024;-84
2021/06/21 09:34:30;;;;;;;0.20;0.20;;;;;;;17.95;69.10;101069.13;5060529;28;20495;-84
2021/06/21 09:39:51;;;;;;;0.10;0.10;;;;;;;18.18;68.80;101077.00;5079779;27;20140;-84
2021/06/21 09:42:23;;;;;;;0.25;0.25;;;;;;;18.11;68.64;101071.94;5077010;28;20048;-85
2021/06/21 09:47:35;;;;;;;0.05;0.05;;;;;;;17.92;69.25;101079.97;5079801;27;20580;-83
2021/06/21 09:52:58;;;;;;;0.00;0.00;;;;;;;18.09;69.00;101079.22;5072777;28;20204;-82
2021/06/21 09:58:12;;;;;;;0.10;0.10;;;;;;;17.99;68.85;101083.25;5077297;27;20153;-84
2021/06/21 10:03:26;;;;;;;0.93;0.93;;;;;;;17.59;69.36;101090.44;5104721;27;20412;-84
2021/06/21 10:06:10;;;;;;;0.08;0.08;;;;;;;17.81;68.25;101089.44;5089149;28;20185;-83
2021/06/21 10:11:45;;;;;;;0.10;0.10;;;;;;;17.95;68.71;101092.38;5079631;28;20161;-83
2021/06/21 10:14:14;;;;;;;0.10;0.10;;;;;;;17.64;69.09;101088.41;5073010;28;20128;-83
2021/06/21 10:16:41;;;;;;;0.08;0.08;;;;;;;17.68;69.57;101071.25;5058015;28;20025;-84
2021/06/21 10:19:09;;;;;;;0.10;0.10;;;;;;;17.60;69.98;101073.44;5059448;28;20143;-84
2021/06/21 10:21:38;;;;;;;2.08;1.35;;;;;;;17.63;69.58;101065.22;5059577;28;20032;-82
2021/06/21 10:24:05;;;;;;;0.03;0.03;;;;;;;17.56;68.95;101071.84;5051781;28;20477;-83
2021/06/21 10:26:31;;;;;;;0.00;0.00;;;;;;;17.60;69.45;101081.47;5057625;28;20045;-84
2021/06/21 10:28:58;;;;;;;0.10;0.10;;;;;;;17.41;69.61;101097.50;5059391;28;20017;-84
2021/06/21 10:31:29;;;;;;;0.10;0.10;;;;;;;17.78;69.19;101101.16;5058724;28;20021;-83
2021/06/21 10:34:00;;;;;;;0.10;0.10;;;;;;;17.84;68.78;101111.59;5057665;28;20033;-83
2021/06/21 10:39:29;;;;;;;0.00;0.00;;;;;;;17.84;69.27;101113.44;5117055;27;20138;-84
2021/06/21 10:44:58;;;;;;;0.00;0.00;;;;;;;17.73;68.89;101109.44;5080756;28;20139;-84
2021/06/21 10:55:34;;;;;;;1.13;1.10;;;;;;;17.82;69.07;101115.31;5081012;27;20156;-83
2021/06/21 11:00:49;;;;;;;0.10;0.10;;;;;;;17.71;68.52;101132.75;5070484;28;20454;-83
2021/06/21 11:03:37;;;;;;;0.13;0.13;;;;;;;18.09;68.22;101132.84;5058391;28;20029;-84
2021/06/21 11:06:28;;;;;;;0.10;0.10;;;;;;;17.92;68.78;101125.53;5049983;28;20061;-84
2021/06/21 11:08:56;;;;;;;0.00;0.00;;;;;;;18.26;68.38;101139.22;5058522;28;20112;-84
2021/06/21 11:11:43;;;;;;;0.20;0.20;;;;;;;18.25;68.37;101137.47;5048222;28;20029;-84
2021/06/21 11:14:17;;;;;;;0.00;0.00;;;;;;;18.24;68.04;101141.09;5049208;28;20026;-84
2021/06/21 11:16:46;;;;;;;0.00;0.00;;;;;;;18.04;68.30;101142.88;5048824;28;20036;-84
2021/06/21 11:19:26;;;;;;;0.10;0.10;;;;;;;18.11;67.93;101157.75;5046536;28;20384;-85
2021/06/21 11:21:56;;;;;;;0.10;0.10;;;;;;;18.13;67.72;101164.84;5046733;28;20032;-85
2021/06/21 11:27:18;;;;;;;0.03;0.03;;;;;;;18.23;67.87;101180.47;5079714;27;20171;-85
2021/06/21 11:29:47;;;;;;;0.03;0.03;;;;;;;18.25;68.01;101180.38;5077982;28;20563;-84
2021/06/21 11:32:15;;;;;;;0.10;0.10;;;;;;;18.14;67.77;101180.88;5078819;28;20016;-84
2021/06/21 11:34:46;;;;;;;3.03;1.85;;;;;;;18.22;67.22;101181.38;5059729;28;20057;-83
2021/06/21 11:45:54;;;;;;;0.10;0.10;;;;;;;18.73;67.88;101178.97;5084103;27;20160;-84
2021/06/21 11:51:16;;;;;;;0.10;0.10;;;;;;;18.90;66.97;101188.00;5109077;27;20156;-83
2021/06/21 11:53:52;;;;;;;0.00;0.00;;;;;;;19.04;66.57;101196.28;5076533;28;20048;-83
2021/06/21 11:56:24;;;;;;;0.10;0.10;;;;;;;18.99;66.08;101201.03;5070814;28;20475;-84
2021/06/21 11:58:52;;;;;;;0.15;0.15;;;;;;;19.04;65.52;101203.44;5087106;28;20030;-84
2021/06/21 12:01:23;;;;;;;0.10;0.10;;;;;;;19.11;64.94;101206.72;5087222;28;20028;-84
2021/06/21 12:04:07;;;;;;;0.10;0.10;;;;;;;19.04;65.52;101217.78;5083170;28;20021;-85
2021/06/21 12:06:33;;;;;;;0.10;0.10;;;;;;;19.04;65.13;101223.13;5069270;28;20172;-85
2021/06/21 12:08:59;;;;;;;0.10;0.10;;;;;;;19.12;65.34;101229.94;5069485;28;20056;-83
2021/06/21 12:11:28;;;;;;;2.13;0.40;;;;;;;18.88;65.03;101228.34;5069213;28;20379;-84
2021/06/21 12:13:58;;;;;;;1.85;1.75;;;;;;;18.89;64.89;101234.56;5110482;22;20426;-86
2021/06/21 12:16:26;;;;;;;0.10;0.10;;;;;;;18.90;65.39;101229.19;5110495;28;20092;-85
2021/06/21 12:18:55;;;;;;;0.08;0.08;;;;;;;18.87;65.08;101233.81;5110430;28;20024;-84
2021/06/21 12:21:29;;;;;;;0.28;0.17;;;;;;;18.84;65.57;101225.88;5110762;28;20051;-86
2021/06/21 12:23:55;;;;;;;0.10;0.10;;;;;;;18.96;65.27;101228.00;5110076;28;20187;-85
2021/06/21 12:26:21;;;;;;;0.10;0.10;;;;;;;18.74;65.11;101226.34;5109751;28;20600;-85
2021/06/21 12:28:47;;;;;;;0.90;0.30;;;;;;;18.92;65.40;101226.44;5108937;28;20077;-87
2021/06/21 12:31:16;;;;;;;0.10;0.10;;;;;;;18.98;65.63;101220.75;5108552;28;20399;-86
2021/06/21 12:33:44;;;;;;;0.77;0.77;;;;;;;19.19;65.58;101223.31;5109229;28;20486;-86
2021/06/21 12:38:59;;;;;;;0.10;0.10;;;;;;;19.50;65.63;101230.69;5078177;28;20169;-87